San Augustine, Texas
Current Conditions -  °F | °C
As of 1:55 AM on Friday 19 Dec 2014 (Local Time) from KOCH Reporting Station
Overcast Overcast  
Wind Chill: 50°   Ceiling: 500
Heat Index: 50°   Visibility: 5mi
Dew Point: 46°   Wind: 5mph
Humidity: 87%   Direction: 60°ENE
Pressure: 30.09"   Gusts: NA
Location:  31.53°N, 94.11°W
Report Text: KOCH 190755Z AUTO 06004KT 5SM OVC005 10/08 A3009 RMK AO1
Loading
Personal Weather Stations






























Interactive Weather Map New forecast layout! Learn more

10-Day Weather Forecast

Advertisements
Track Severe Weather on mobile